createdAt,value
2023-01-25T00:00:40.402Z,102222.50
2023-01-25T00:02:12.150Z,102224.28
2023-01-25T00:03:44.108Z,102232.25
2023-01-25T00:05:15.955Z,102226.94
2023-01-25T00:06:48.356Z,102224.28
2023-01-25T00:08:21.426Z,102226.94
2023-01-25T00:09:53.167Z,102216.31
2023-01-25T00:11:24.926Z,102218.97
2023-01-25T00:12:57.196Z,102222.50
2023-01-25T00:14:28.956Z,102218.06
2023-01-25T00:16:02.714Z,102218.03
2023-01-25T00:17:35.267Z,102218.03
2023-01-25T00:19:08.397Z,102215.38
2023-01-25T00:20:40.108Z,102212.72
2023-01-25T00:22:11.814Z,102217.16
2023-01-25T00:23:43.747Z,102216.25
2023-01-25T00:25:15.607Z,102216.25
2023-01-25T00:26:47.323Z,102216.25
2023-01-25T00:28:19.035Z,102216.25
2023-01-25T00:29:50.764Z,102221.56
2023-01-25T00:31:35.082Z,102220.72
2023-01-25T00:33:33.805Z,102224.28
2023-01-25T00:35:06.326Z,102219.78
2023-01-25T00:36:38.279Z,102218.88
2023-01-25T00:38:28.828Z,102224.22
2023-01-25T00:40:00.513Z,102222.44
2023-01-25T00:41:32.864Z,102214.47
2023-01-25T00:43:04.579Z,102224.19
2023-01-25T00:44:37.642Z,102228.66
2023-01-25T00:46:09.834Z,102222.44
2023-01-25T00:47:42.100Z,102218.91
2023-01-25T00:49:26.293Z,102220.69
2023-01-25T00:51:02.419Z,102218.03
2023-01-25T00:52:35.199Z,102221.53
2023-01-25T00:54:07.049Z,102215.34
2023-01-25T00:55:38.955Z,102210.03
2023-01-25T00:57:10.784Z,102204.69
2023-01-25T00:58:42.758Z,102214.41
2023-01-25T01:00:16.138Z,102211.84
2023-01-25T01:01:47.864Z,102211.81
2023-01-25T01:03:19.588Z,102211.75
2023-01-25T01:04:51.378Z,102210.00
2023-01-25T01:06:23.166Z,102206.47
2023-01-25T01:07:57.784Z,102202.94
2023-01-25T01:09:29.542Z,102197.66
2023-01-25T01:11:05.990Z,102203.81
2023-01-25T01:12:37.682Z,102199.44
2023-01-25T01:14:09.982Z,102199.44
2023-01-25T01:15:41.749Z,102202.09
2023-01-25T01:17:13.458Z,102200.31
2023-01-25T01:18:46.155Z,102199.41
2023-01-25T01:20:17.987Z,102199.41
2023-01-25T01:21:49.727Z,102191.44
2023-01-25T01:23:21.842Z,102193.22
2023-01-25T01:24:53.535Z,102193.25
2023-01-25T01:26:25.313Z,102195.00
2023-01-25T01:27:57.012Z,102186.16
2023-01-25T01:29:28.769Z,102186.16
2023-01-25T01:31:01.958Z,102180.84
2023-01-25T01:32:37.576Z,102174.66
2023-01-25T01:34:13.406Z,102172.88
2023-01-25T01:35:46.994Z,102167.56
2023-01-25T01:37:18.771Z,102169.28
2023-01-25T01:38:50.671Z,102160.41
2023-01-25T01:40:22.822Z,102160.41
2023-01-25T01:41:54.627Z,102153.31
2023-01-25T01:43:26.659Z,102151.56
2023-01-25T01:44:59.923Z,102151.56
2023-01-25T01:46:37.629Z,102148.00
2023-01-25T01:48:24.649Z,102151.59
2023-01-25T01:50:04.715Z,102147.16
2023-01-25T01:51:49.197Z,102151.59
2023-01-25T01:53:26.992Z,102148.03
2023-01-25T01:55:03.224Z,102147.16
2023-01-25T01:56:49.980Z,102145.41
2023-01-25T01:58:23.188Z,102147.13
2023-01-25T02:00:04.127Z,102143.59
2023-01-25T02:01:44.942Z,102152.44
2023-01-25T02:03:17.227Z,102137.38
2023-01-25T02:04:49.683Z,102138.25
2023-01-25T02:06:45.699Z,102135.63
2023-01-25T02:08:19.431Z,102131.13
2023-01-25T02:09:52.015Z,102132.00
2023-01-25T02:11:26.429Z,102128.50
2023-01-25T02:12:59.648Z,102128.50
2023-01-25T02:14:31.894Z,102129.34
2023-01-25T02:16:05.441Z,102127.56
2023-01-25T02:17:39.764Z,102124.09
2023-01-25T02:19:33.214Z,102126.78
2023-01-25T02:21:05.077Z,102124.09
2023-01-25T02:22:47.579Z,102129.41
2023-01-25T02:24:29.697Z,102121.47
2023-01-25T02:26:05.249Z,102113.50
2023-01-25T02:27:43.524Z,102117.94
2023-01-25T02:29:17.566Z,102115.25
2023-01-25T02:30:49.473Z,102108.19
2023-01-25T02:32:21.272Z,102103.78
2023-01-25T02:33:53.079Z,102106.44
2023-01-25T02:35:37.822Z,102110.00
2023-01-25T02:37:14.575Z,102104.66
2023-01-25T02:38:53.484Z,102106.44
2023-01-25T02:40:25.720Z,102099.31
2023-01-25T02:41:57.482Z,102103.75
2023-01-25T02:43:33.792Z,102101.97
2023-01-25T02:45:13.764Z,102095.81
2023-01-25T02:46:45.702Z,102091.38
2023-01-25T02:48:18.054Z,102087.84
2023-01-25T02:49:49.824Z,102084.31
2023-01-25T02:51:27.281Z,102079.06
2023-01-25T02:53:00.000Z,102080.78
2023-01-25T02:54:32.368Z,102082.53
2023-01-25T02:56:04.851Z,102085.22
2023-01-25T02:57:36.589Z,102087.88
2023-01-25T02:59:10.593Z,102080.78
2023-01-25T03:00:43.205Z,102087.84
2023-01-25T03:02:15.378Z,102085.19
2023-01-25T03:03:47.974Z,102086.94
2023-01-25T03:05:19.668Z,102082.50
2023-01-25T03:06:51.966Z,102087.81
2023-01-25T03:08:24.266Z,102094.88
2023-01-25T03:09:57.812Z,102086.91
2023-01-25T03:11:30.037Z,102085.13
2023-01-25T03:13:04.128Z,102089.53
2023-01-25T03:14:35.900Z,102086.88
2023-01-25T03:16:10.722Z,102089.53
2023-01-25T03:17:44.207Z,102081.56
2023-01-25T03:19:16.581Z,102083.34
2023-01-25T03:20:48.421Z,102077.13
2023-01-25T03:22:20.347Z,102076.25
2023-01-25T03:23:57.853Z,102075.41
2023-01-25T03:25:30.738Z,102073.63
2023-01-25T03:27:14.366Z,102070.97
2023-01-25T03:28:56.447Z,102071.88
2023-01-25T03:30:28.379Z,102076.28
2023-01-25T03:32:00.648Z,102076.28
2023-01-25T03:33:32.847Z,102077.19
2023-01-25T03:35:05.728Z,102073.63
2023-01-25T03:36:38.637Z,102078.06
2023-01-25T03:38:10.386Z,102071.88
2023-01-25T03:39:42.186Z,102072.78
2023-01-25T03:41:15.095Z,102082.50
2023-01-25T03:42:47.474Z,102075.41
2023-01-25T03:44:19.352Z,102076.31
2023-01-25T03:46:00.438Z,102069.25
2023-01-25T03:47:33.038Z,102064.81
2023-01-25T03:49:04.832Z,102071.91
2023-01-25T03:50:37.656Z,102067.47
2023-01-25T03:52:09.661Z,102074.56
2023-01-25T03:53:45.410Z,102075.44
2023-01-25T03:55:20.857Z,102071.03
2023-01-25T03:56:52.664Z,102071.00
2023-01-25T03:58:30.699Z,102074.56
2023-01-25T04:00:02.599Z,102064.84
2023-01-25T04:01:36.704Z,102066.66
2023-01-25T04:03:08.412Z,102064.00
2023-01-25T04:04:40.538Z,102065.78
2023-01-25T04:06:14.107Z,102064.88
2023-01-25T04:07:45.845Z,102067.53
2023-01-25T04:09:18.586Z,102060.47
2023-01-25T04:10:57.506Z,102055.16
2023-01-25T04:12:29.467Z,102056.03
2023-01-25T04:14:01.597Z,102056.94
2023-01-25T04:15:39.984Z,102048.06
2023-01-25T04:17:21.271Z,102050.72
2023-01-25T04:18:56.574Z,102044.53
2023-01-25T04:20:28.439Z,102048.94
2023-01-25T04:22:01.470Z,102047.19
2023-01-25T04:23:38.480Z,102056.94
2023-01-25T04:25:10.865Z,102054.28
2023-01-25T04:26:49.037Z,102053.41
2023-01-25T04:28:20.875Z,102050.75
2023-01-25T04:29:52.670Z,102047.19
2023-01-25T04:31:26.007Z,102043.66
2023-01-25T04:33:03.709Z,102048.09
2023-01-25T04:34:36.147Z,102050.75
2023-01-25T04:36:08.387Z,102046.31
2023-01-25T04:37:40.146Z,102048.09
2023-01-25T04:39:12.981Z,102054.28
2023-01-25T04:40:45.001Z,102048.09
2023-01-25T04:42:16.965Z,102050.75
2023-01-25T04:43:51.212Z,102052.53
2023-01-25T04:45:25.125Z,102051.63
2023-01-25T04:46:57.358Z,102054.28
2023-01-25T04:48:29.987Z,102048.97
2023-01-25T04:50:06.549Z,102048.97
2023-01-25T04:51:39.065Z,102050.75
2023-01-25T04:53:12.599Z,102041.00
2023-01-25T04:54:44.391Z,102040.13
2023-01-25T04:56:17.168Z,102041.88
2023-01-25T04:57:54.477Z,102043.63
2023-01-25T04:59:26.206Z,102048.94
2023-01-25T05:01:02.730Z,102039.22
2023-01-25T05:02:34.791Z,102042.75
2023-01-25T05:04:06.704Z,102043.63
2023-01-25T05:05:47.502Z,102045.44
2023-01-25T05:07:22.936Z,102041.88
2023-01-25T05:08:54.780Z,102041.00
2023-01-25T05:10:26.776Z,102045.44
2023-01-25T05:12:18.393Z,102043.66
2023-01-25T05:13:58.773Z,102037.44
2023-01-25T05:15:37.035Z,102033.91
2023-01-25T05:17:09.651Z,102035.69
2023-01-25T05:18:48.490Z,102038.34
2023-01-25T05:20:25.349Z,102034.81
2023-01-25T05:22:00.036Z,102035.69
2023-01-25T05:23:40.028Z,102028.59
2023-01-25T05:25:31.746Z,102032.13
2023-01-25T05:27:04.172Z,102019.72
2023-01-25T05:28:54.718Z,102022.38
2023-01-25T05:30:34.348Z,102018.84
2023-01-25T05:32:18.800Z,102020.63
2023-01-25T05:33:50.565Z,102021.50
2023-01-25T05:35:24.642Z,102019.75
2023-01-25T05:36:59.574Z,102019.72
2023-01-25T05:38:31.458Z,102016.19
2023-01-25T05:40:04.272Z,102015.31
2023-01-25T05:41:40.851Z,102013.59
2023-01-25T05:43:12.625Z,102009.19
2023-01-25T05:44:47.455Z,102008.31
2023-01-25T05:46:19.916Z,102009.19
2023-01-25T05:47:56.621Z,102008.31
2023-01-25T05:49:28.447Z,102003.88
2023-01-25T05:51:00.595Z,102003.88
2023-01-25T05:52:33.440Z,101996.81
2023-01-25T05:54:06.339Z,102005.66
2023-01-25T05:55:38.194Z,102008.31
2023-01-25T05:57:14.816Z,102004.78
2023-01-25T05:58:46.752Z,102014.53
2023-01-25T06:00:19.067Z,102018.97
2023-01-25T06:01:50.912Z,102015.44
2023-01-25T06:03:22.791Z,102008.34
2023-01-25T06:04:54.686Z,102001.28
2023-01-25T06:06:26.525Z,102005.69
2023-01-25T06:07:58.678Z,102003.94
2023-01-25T06:09:34.747Z,101997.72
2023-01-25T06:11:22.232Z,101999.53
2023-01-25T06:13:00.859Z,101997.69
2023-01-25T06:14:32.687Z,101999.47
2023-01-25T06:16:06.241Z,102006.53
2023-01-25T06:17:46.945Z,102004.78
2023-01-25T06:19:50.928Z,102000.31
2023-01-25T06:21:37.204Z,102001.19
2023-01-25T06:23:08.929Z,101997.69
2023-01-25T06:24:40.650Z,102003.03
2023-01-25T06:26:14.306Z,101992.44
2023-01-25T06:27:46.032Z,102001.28
2023-01-25T06:29:17.765Z,101990.69
2023-01-25T06:30:49.539Z,102003.03
2023-01-25T06:32:21.393Z,101990.69
2023-01-25T06:33:53.343Z,102002.13
2023-01-25T06:35:27.601Z,101992.44
2023-01-25T06:36:59.485Z,101995.03
2023-01-25T06:38:32.297Z,101992.38
2023-01-25T06:40:04.814Z,101989.72
2023-01-25T06:41:36.601Z,101991.50
2023-01-25T06:43:09.522Z,101991.50
2023-01-25T06:44:41.230Z,101985.28
2023-01-25T06:46:14.005Z,101985.25
2023-01-25T06:47:48.324Z,101982.59
2023-01-25T06:49:20.089Z,101987.03
2023-01-25T06:50:59.981Z,101986.16
2023-01-25T06:52:32.128Z,101987.03
2023-01-25T06:54:04.638Z,101990.56
2023-01-25T06:55:36.377Z,101983.47
2023-01-25T06:57:10.455Z,101991.44
2023-01-25T06:58:42.275Z,101987.03
2023-01-25T07:00:15.294Z,101980.84
2023-01-25T07:01:47.049Z,101985.25
2023-01-25T07:03:18.805Z,101979.06
2023-01-25T07:04:50.536Z,101981.72
2023-01-25T07:06:22.797Z,101984.38
2023-01-25T07:07:54.554Z,101972.00
2023-01-25T07:09:26.380Z,101968.44
2023-01-25T07:11:01.424Z,101969.31
2023-01-25T07:12:33.669Z,101967.56
2023-01-25T07:14:05.983Z,101965.78
2023-01-25T07:15:37.699Z,101963.13
2023-01-25T07:17:09.466Z,101959.56
2023-01-25T07:18:42.404Z,101961.34
2023-01-25T07:20:14.247Z,101963.94
2023-01-25T07:21:47.202Z,101956.91
2023-01-25T07:23:19.938Z,101953.34
2023-01-25T07:24:53.941Z,101952.44
2023-01-25T07:26:26.101Z,101957.72
2023-01-25T07:27:57.892Z,101960.38
2023-01-25T07:29:30.298Z,101953.28
2023-01-25T07:31:06.445Z,101955.06
2023-01-25T07:32:38.243Z,101954.16
2023-01-25T07:34:12.089Z,101949.72
2023-01-25T07:35:43.807Z,101952.38
2023-01-25T07:37:15.630Z,101942.63
2023-01-25T07:38:48.150Z,101939.09
2023-01-25T07:40:20.485Z,101939.91
2023-01-25T07:41:52.262Z,101935.50
2023-01-25T07:43:25.861Z,101949.63
2023-01-25T07:44:57.600Z,101936.34
2023-01-25T07:46:29.686Z,101935.47
2023-01-25T07:48:08.713Z,101934.56
2023-01-25T07:49:40.497Z,101927.44
2023-01-25T07:51:13.204Z,101926.53
2023-01-25T07:52:44.878Z,101927.41
2023-01-25T07:54:16.667Z,101922.97
2023-01-25T07:55:48.508Z,101922.91
2023-01-25T07:57:20.612Z,101926.44
2023-01-25T07:58:54.801Z,101919.38
2023-01-25T08:00:26.996Z,101922.00
2023-01-25T08:01:58.873Z,101914.03
2023-01-25T08:03:30.664Z,101906.06
2023-01-25T08:05:02.356Z,101917.50
2023-01-25T08:06:41.195Z,101914.91
2023-01-25T08:08:13.161Z,101916.63
2023-01-25T08:09:44.865Z,101913.97
2023-01-25T08:11:20.367Z,101916.59
2023-01-25T08:12:52.184Z,101911.28
2023-01-25T08:14:24.922Z,101904.16
2023-01-25T08:15:56.631Z,101913.88
2023-01-25T08:17:31.756Z,101905.88
2023-01-25T08:19:04.236Z,101912.09
2023-01-25T08:20:37.791Z,101905.00
2023-01-25T08:22:09.542Z,101906.72
2023-01-25T08:23:41.251Z,101902.28
2023-01-25T08:25:12.968Z,101907.56
2023-01-25T08:26:44.804Z,101910.22
2023-01-25T08:28:17.104Z,101907.56
2023-01-25T08:29:50.671Z,101912.84
2023-01-25T08:31:25.816Z,101905.72
2023-01-25T08:32:57.782Z,101911.91
2023-01-25T08:34:31.412Z,101905.66
2023-01-25T08:36:04.065Z,101906.53
2023-01-25T08:37:35.875Z,101909.19
2023-01-25T08:39:09.107Z,101910.94
2023-01-25T08:40:41.120Z,101901.16
2023-01-25T08:42:12.815Z,101898.50
2023-01-25T08:43:45.189Z,101905.56
2023-01-25T08:45:16.952Z,101899.38
2023-01-25T08:46:48.658Z,101900.25
2023-01-25T08:48:20.359Z,101905.56
2023-01-25T08:49:52.582Z,101908.22
2023-01-25T08:51:25.435Z,101903.81
2023-01-25T08:52:57.159Z,101907.34
2023-01-25T08:54:28.969Z,101916.19
2023-01-25T08:56:07.328Z,101906.47
2023-01-25T08:57:39.040Z,101896.66
2023-01-25T08:59:12.028Z,101906.41
2023-01-25T09:00:45.067Z,101902.84
2023-01-25T09:02:16.982Z,101895.72
2023-01-25T09:03:51.108Z,101897.47
2023-01-25T09:05:22.891Z,101893.03
2023-01-25T09:06:55.831Z,101895.63
2023-01-25T09:08:27.601Z,101893.84
2023-01-25T09:10:00.049Z,101892.03
2023-01-25T09:11:34.424Z,101890.22
2023-01-25T09:13:08.583Z,101891.13
2023-01-25T09:14:40.817Z,101891.06
2023-01-25T09:16:16.623Z,101888.41
2023-01-25T09:17:51.514Z,101885.75
2023-01-25T09:19:23.256Z,101889.28
2023-01-25T09:20:55.186Z,101882.16
2023-01-25T09:22:26.944Z,101877.72
2023-01-25T09:24:07.858Z,101872.44
2023-01-25T09:25:39.966Z,101875.13
2023-01-25T09:27:12.208Z,101866.22
2023-01-25T09:28:48.466Z,101873.31
2023-01-25T09:30:21.922Z,101867.97
2023-01-25T09:31:58.957Z,101871.50
2023-01-25T09:33:40.038Z,101864.41
2023-01-25T09:35:12.095Z,101866.16
2023-01-25T09:36:44.246Z,101868.81
2023-01-25T09:38:16.019Z,101867.91
2023-01-25T09:39:47.783Z,101869.63
2023-01-25T09:41:36.934Z,101860.78
2023-01-25T09:43:40.870Z,101863.44
2023-01-25T09:45:29.365Z,101861.59
2023-01-25T09:47:17.740Z,101859.81
2023-01-25T09:49:08.701Z,101865.94
2023-01-25T09:50:52.661Z,101862.38
2023-01-25T09:53:08.553Z,101864.06
2023-01-25T09:54:47.144Z,101859.59
2023-01-25T09:56:27.242Z,101860.50
2023-01-25T09:58:02.772Z,101866.69
2023-01-25T09:59:35.103Z,101865.75
2023-01-25T10:01:19.520Z,101863.97
2023-01-25T10:03:00.677Z,101868.38
2023-01-25T10:04:40.855Z,101867.50
2023-01-25T10:06:14.375Z,101859.47
2023-01-25T10:08:01.918Z,101870.97
2023-01-25T10:09:50.599Z,101865.66
2023-01-25T10:11:31.520Z,101862.09
2023-01-25T10:13:03.347Z,101859.41
2023-01-25T10:14:35.823Z,101854.06
2023-01-25T10:16:25.160Z,101854.06
2023-01-25T10:18:04.858Z,101857.59
2023-01-25T10:20:12.269Z,101861.22
2023-01-25T10:21:53.820Z,101854.06
2023-01-25T10:23:41.899Z,101843.50
2023-01-25T10:25:25.258Z,101841.69
2023-01-25T10:27:02.573Z,101838.13
2023-01-25T10:28:42.274Z,101836.38
2023-01-25T10:30:19.934Z,101832.88
2023-01-25T10:32:02.356Z,101831.97
2023-01-25T10:33:40.365Z,101836.38
2023-01-25T10:35:29.249Z,101829.31
2023-01-25T10:37:17.047Z,101826.66
2023-01-25T10:38:59.263Z,101834.53
2023-01-25T10:40:42.022Z,101825.75
2023-01-25T10:42:16.479Z,101819.50
2023-01-25T10:44:08.505Z,101815.94
2023-01-25T10:45:43.201Z,101807.94
2023-01-25T10:47:29.106Z,101805.34
2023-01-25T10:49:13.782Z,101803.53
2023-01-25T10:50:48.546Z,101793.78
2023-01-25T10:52:25.612Z,101789.31
2023-01-25T10:54:05.909Z,101791.16
2023-01-25T10:55:59.454Z,101788.53
2023-01-25T10:57:31.582Z,101777.81
2023-01-25T10:59:16.865Z,101785.81
2023-01-25T11:00:52.332Z,101784.00
2023-01-25T11:02:40.746Z,101780.53
2023-01-25T11:04:28.566Z,101784.00
2023-01-25T11:06:00.300Z,101779.53
2023-01-25T11:07:32.049Z,101771.63
2023-01-25T11:09:32.204Z,101777.88
2023-01-25T11:11:30.061Z,101781.44
2023-01-25T11:13:16.964Z,101777.88
2023-01-25T11:14:49.987Z,101761.97
2023-01-25T11:16:37.493Z,101760.31
2023-01-25T11:18:22.140Z,101758.59
2023-01-25T11:20:18.203Z,101766.56
2023-01-25T11:21:55.046Z,101765.69
2023-01-25T11:23:27.124Z,101768.31
2023-01-25T11:24:58.859Z,101760.38
2023-01-25T11:26:32.313Z,101749.72
2023-01-25T11:28:24.226Z,101753.28
2023-01-25T11:30:19.381Z,101742.66
2023-01-25T11:31:55.520Z,101745.22
2023-01-25T11:33:30.551Z,101738.06
2023-01-25T11:35:02.666Z,101742.44
2023-01-25T11:36:42.623Z,101737.13
2023-01-25T11:38:19.462Z,101731.72
2023-01-25T11:39:59.460Z,101728.16
2023-01-25T11:41:56.366Z,101721.94
2023-01-25T11:43:52.425Z,101718.41
2023-01-25T11:45:49.543Z,101714.84
2023-01-25T11:47:27.605Z,101717.38
2023-01-25T11:49:26.432Z,101712.97
2023-01-25T11:51:06.156Z,101714.72
2023-01-25T11:53:01.967Z,101713.91
2023-01-25T11:54:51.627Z,101701.47
2023-01-25T11:56:50.622Z,101703.28
2023-01-25T11:58:52.005Z,101698.75
2023-01-25T12:00:30.466Z,101687.25
2023-01-25T12:02:26.828Z,101692.63
2023-01-25T12:04:46.226Z,101684.72
2023-01-25T12:06:51.165Z,101681.13
2023-01-25T12:08:46.135Z,101674.00
2023-01-25T12:10:26.607Z,101679.31
2023-01-25T12:12:11.853Z,101676.66
2023-01-25T12:14:04.208Z,101671.34
2023-01-25T12:15:45.228Z,101663.25
2023-01-25T12:17:19.807Z,101658.72
2023-01-25T12:19:09.629Z,101657.78
2023-01-25T12:21:00.092Z,101649.78
2023-01-25T12:22:45.380Z,101647.91
2023-01-25T12:24:20.210Z,101638.88
2023-01-25T12:26:12.949Z,101638.78
2023-01-25T12:28:07.699Z,101628.16
2023-01-25T12:29:45.081Z,101621.84
2023-01-25T12:31:23.843Z,101624.41
2023-01-25T12:33:32.091Z,101628.84
2023-01-25T12:35:25.566Z,101620.69
2023-01-25T12:37:03.779Z,101617.06
2023-01-25T12:38:45.775Z,101622.34
2023-01-25T12:40:25.585Z,101621.41
2023-01-25T12:42:07.694Z,101603.63
2023-01-25T12:43:46.365Z,101609.88
2023-01-25T12:45:25.641Z,101597.38
2023-01-25T12:47:05.752Z,101598.25
2023-01-25T12:48:43.246Z,101592.94
2023-01-25T12:50:27.615Z,101592.94
2023-01-25T12:52:04.007Z,101589.38
2023-01-25T12:53:42.826Z,101591.19
2023-01-25T12:55:15.944Z,101581.34
2023-01-25T12:57:03.802Z,101586.66
2023-01-25T12:58:44.829Z,101586.59
2023-01-25T13:00:32.766Z,101583.91
2023-01-25T13:02:22.294Z,101580.22
2023-01-25T13:04:18.981Z,101579.34
2023-01-25T13:06:02.737Z,101580.16
2023-01-25T13:07:41.941Z,101579.22
2023-01-25T13:09:52.064Z,101569.50
2023-01-25T13:11:41.828Z,101573.03
2023-01-25T13:13:26.763Z,101569.44
2023-01-25T13:14:58.548Z,101570.28
2023-01-25T13:16:30.304Z,101565.81
2023-01-25T13:18:02.117Z,101564.94
2023-01-25T13:19:33.880Z,101558.78
2023-01-25T13:21:11.573Z,101559.66
2023-01-25T13:22:43.237Z,101566.75
2023-01-25T13:24:21.453Z,101558.84
2023-01-25T13:25:53.259Z,101559.72
2023-01-25T13:27:28.213Z,101551.75
2023-01-25T13:29:00.667Z,101553.50
2023-01-25T13:30:34.569Z,101545.56
2023-01-25T13:32:13.464Z,101542.94
2023-01-25T13:33:45.472Z,101537.63
2023-01-25T13:35:30.781Z,101545.72
2023-01-25T13:37:16.215Z,101536.84
2023-01-25T13:38:47.946Z,101533.41
2023-01-25T13:40:37.840Z,101531.78
2023-01-25T13:42:09.530Z,101527.38
2023-01-25T13:43:47.515Z,101529.19
2023-01-25T13:45:21.252Z,101525.69
2023-01-25T13:46:53.238Z,101520.38
2023-01-25T13:48:27.824Z,101518.63
2023-01-25T13:49:59.647Z,101521.31
2023-01-25T13:51:36.698Z,101518.72
2023-01-25T13:53:14.238Z,101511.66
2023-01-25T13:54:47.843Z,101521.38
2023-01-25T13:56:29.794Z,101514.31
2023-01-25T13:58:24.196Z,101511.75
2023-01-25T14:00:11.002Z,101510.91
2023-01-25T14:01:47.481Z,101516.16
2023-01-25T14:03:26.219Z,101517.16
2023-01-25T14:04:58.887Z,101511.88
2023-01-25T14:06:40.887Z,101511.91
2023-01-25T14:08:13.124Z,101510.22
2023-01-25T14:09:45.209Z,101504.97
2023-01-25T14:11:25.736Z,101492.69
2023-01-25T14:13:00.966Z,101491.81
2023-01-25T14:14:35.292Z,101490.03
2023-01-25T14:16:10.647Z,101487.44
2023-01-25T14:17:42.860Z,101492.75
2023-01-25T14:19:26.694Z,101488.38
2023-01-25T14:21:21.978Z,101491.97
2023-01-25T14:22:53.688Z,101492.81
2023-01-25T14:24:25.651Z,101490.19
2023-01-25T14:25:59.389Z,101488.47
2023-01-25T14:27:31.323Z,101485.88
2023-01-25T14:29:03.192Z,101483.28
2023-01-25T14:30:36.851Z,101485.09
2023-01-25T14:32:18.231Z,101484.31
2023-01-25T14:33:57.779Z,101478.16
2023-01-25T14:35:43.516Z,101478.34
2023-01-25T14:37:22.380Z,101473.91
2023-01-25T14:38:55.198Z,101474.88
2023-01-25T14:40:29.228Z,101474.16
2023-01-25T14:42:02.181Z,101474.22
2023-01-25T14:43:36.957Z,101473.44
2023-01-25T14:45:13.388Z,101468.22
2023-01-25T14:46:45.087Z,101467.41
2023-01-25T14:48:42.329Z,101466.72
2023-01-25T14:50:32.898Z,101460.59
2023-01-25T14:52:06.425Z,101464.22
2023-01-25T14:53:40.902Z,101463.41
2023-01-25T14:55:14.436Z,101457.31
2023-01-25T14:56:49.907Z,101454.78
2023-01-25T14:58:24.214Z,101450.41
2023-01-25T14:59:56.637Z,101454.88
2023-01-25T15:01:32.351Z,101450.56
2023-01-25T15:03:15.918Z,101447.19
2023-01-25T15:05:18.443Z,101449.91
2023-01-25T15:06:52.355Z,101434.84
2023-01-25T15:08:36.749Z,101440.25
2023-01-25T15:10:17.468Z,101434.91
2023-01-25T15:11:59.946Z,101436.78
2023-01-25T15:13:31.735Z,101433.25
2023-01-25T15:15:18.928Z,101431.59
2023-01-25T15:16:50.726Z,101427.16
2023-01-25T15:18:54.636Z,101422.00
2023-01-25T15:20:44.873Z,101422.94
2023-01-25T15:22:18.135Z,101423.81
2023-01-25T15:23:51.484Z,101416.75
2023-01-25T15:25:26.377Z,101416.75
2023-01-25T15:26:58.269Z,101414.16
2023-01-25T15:28:34.529Z,101415.94
2023-01-25T15:30:11.887Z,101403.47
2023-01-25T15:31:43.986Z,101396.38
2023-01-25T15:33:24.428Z,101400.91
2023-01-25T15:34:56.669Z,101399.94
2023-01-25T15:36:29.665Z,101392.06
2023-01-25T15:38:01.621Z,101394.72
2023-01-25T15:39:34.993Z,101394.78
2023-01-25T15:41:07.116Z,101395.63
2023-01-25T15:42:39.735Z,101397.41
2023-01-25T15:44:12.609Z,101393.84
2023-01-25T15:45:47.428Z,101396.53
2023-01-25T15:47:19.212Z,101394.78
2023-01-25T15:48:52.037Z,101387.75
2023-01-25T15:50:23.760Z,101388.56
2023-01-25T15:51:55.980Z,101380.69
2023-01-25T15:53:28.334Z,101383.38
2023-01-25T15:55:02.109Z,101386.03
2023-01-25T15:56:37.217Z,101378.94
2023-01-25T15:58:14.170Z,101379.84
2023-01-25T15:59:45.999Z,101385.16
2023-01-25T16:01:18.099Z,101375.44
2023-01-25T16:02:50.325Z,101372.78
2023-01-25T16:04:22.083Z,101368.34
2023-01-25T16:05:58.249Z,101357.72
2023-01-25T16:07:39.771Z,101361.31
2023-01-25T16:09:16.014Z,101361.25
2023-01-25T16:10:48.670Z,101367.38
2023-01-25T16:12:22.377Z,101356.81
2023-01-25T16:13:54.106Z,101351.53
2023-01-25T16:15:25.914Z,101355.94
2023-01-25T16:17:01.636Z,101350.63
2023-01-25T16:18:33.482Z,101344.50
2023-01-25T16:20:05.997Z,101332.97
2023-01-25T16:21:37.867Z,101335.63
2023-01-25T16:23:11.998Z,101339.19
2023-01-25T16:24:45.456Z,101330.41
2023-01-25T16:26:21.818Z,101332.13
2023-01-25T16:27:53.559Z,101330.41
2023-01-25T16:29:25.922Z,101335.69
2023-01-25T16:30:59.162Z,101325.09
2023-01-25T16:32:31.102Z,101332.22
2023-01-25T16:34:02.985Z,101330.47
2023-01-25T16:35:34.698Z,101326.03
2023-01-25T16:37:06.497Z,101319.84
2023-01-25T16:38:38.194Z,101322.56
2023-01-25T16:40:28.625Z,101320.84
2023-01-25T16:42:00.472Z,101320.78
2023-01-25T16:43:42.491Z,101316.38
2023-01-25T16:45:16.899Z,101316.31
2023-01-25T16:46:50.225Z,101311.06
2023-01-25T16:48:22.008Z,101306.56
2023-01-25T16:49:53.775Z,101310.16
2023-01-25T16:51:27.788Z,101310.16
2023-01-25T16:53:00.143Z,101310.16
2023-01-25T16:54:32.081Z,101309.28
2023-01-25T16:56:03.868Z,101299.56
2023-01-25T16:57:35.593Z,101303.09
2023-01-25T16:59:09.420Z,101307.50
2023-01-25T17:00:41.801Z,101307.44
2023-01-25T17:02:13.690Z,101303.03
2023-01-25T17:03:46.223Z,101299.47
2023-01-25T17:05:17.998Z,101293.22
2023-01-25T17:06:50.703Z,101287.91
2023-01-25T17:08:24.679Z,101285.25
2023-01-25T17:09:56.509Z,101304.72
2023-01-25T17:11:29.481Z,101292.31
2023-01-25T17:13:01.570Z,101289.66
2023-01-25T17:14:33.632Z,101289.66
2023-01-25T17:16:05.946Z,101289.66
2023-01-25T17:17:38.189Z,101285.25
2023-01-25T17:19:13.047Z,101284.41
2023-01-25T17:20:45.012Z,101279.09
2023-01-25T17:22:16.980Z,101277.38
2023-01-25T17:23:49.728Z,101281.81
2023-01-25T17:25:21.452Z,101275.63
2023-01-25T17:26:57.540Z,101278.31
2023-01-25T17:28:29.322Z,101280.09
2023-01-25T17:30:01.424Z,101277.44
2023-01-25T17:31:35.034Z,101277.44
2023-01-25T17:33:08.597Z,101273.06
2023-01-25T17:34:40.310Z,101270.41
2023-01-25T17:36:15.048Z,101268.63
2023-01-25T17:37:46.911Z,101271.34
2023-01-25T17:39:19.968Z,101267.75
2023-01-25T17:40:52.271Z,101267.75
2023-01-25T17:42:23.983Z,101262.44
2023-01-25T17:43:56.027Z,101262.44
2023-01-25T17:45:28.333Z,101259.78
2023-01-25T17:47:00.355Z,101255.44
2023-01-25T17:48:32.347Z,101257.16
2023-01-25T17:50:04.258Z,101266.03
2023-01-25T17:51:36.685Z,101258.94
2023-01-25T17:53:08.394Z,101252.78
2023-01-25T17:54:40.459Z,101243.88
2023-01-25T17:56:13.145Z,101247.47
2023-01-25T17:57:46.523Z,101245.72
2023-01-25T17:59:18.542Z,101245.72
2023-01-25T18:00:50.258Z,101242.16
2023-01-25T18:02:22.142Z,101240.44
2023-01-25T18:03:54.550Z,101243.94
2023-01-25T18:05:29.384Z,101243.06
2023-01-25T18:07:01.078Z,101241.22
2023-01-25T18:08:33.033Z,101244.78
2023-01-25T18:10:06.234Z,101238.59
2023-01-25T18:11:41.145Z,101236.81
2023-01-25T18:13:13.134Z,101222.63
2023-01-25T18:14:45.289Z,101231.47
2023-01-25T18:16:20.032Z,101224.38
2023-01-25T18:17:52.061Z,101225.22
2023-01-25T18:19:23.843Z,101222.56